createdAt,value
2023-02-08T00:01:16.817Z,17.00
2023-02-08T00:03:45.704Z,18.57
2023-02-08T00:06:15.400Z,17.67
2023-02-08T00:08:44.389Z,17.47
2023-02-08T00:11:12.673Z,17.77
2023-02-08T00:13:42.845Z,20.17
2023-02-08T00:16:12.368Z,19.27
2023-02-08T00:18:42.702Z,19.00
2023-02-08T00:21:12.275Z,19.37
2023-02-08T00:23:40.532Z,17.87
2023-02-08T00:26:08.929Z,16.87
2023-02-08T00:28:37.083Z,20.93
2023-02-08T00:31:06.016Z,29.23
2023-02-08T00:33:34.285Z,20.03
2023-02-08T00:36:05.958Z,18.10
2023-02-08T00:38:34.449Z,23.23
2023-02-08T00:41:02.581Z,18.13
2023-02-08T00:43:30.563Z,19.23
2023-02-08T00:46:00.100Z,20.97
2023-02-08T00:48:28.804Z,19.67
2023-02-08T00:51:06.231Z,16.83
2023-02-08T00:53:37.234Z,14.13
2023-02-08T00:56:07.521Z,17.57
2023-02-08T00:58:36.073Z,14.77
2023-02-08T01:01:05.876Z,14.27
2023-02-08T01:03:35.401Z,18.43
2023-02-08T01:06:06.987Z,14.53
2023-02-08T01:08:35.346Z,18.30
2023-02-08T01:11:05.155Z,15.20
2023-02-08T01:13:33.399Z,21.93
2023-02-08T01:16:07.900Z,17.73
2023-02-08T01:18:36.048Z,17.33
2023-02-08T01:21:10.431Z,17.03
2023-02-08T01:23:40.805Z,17.33
2023-02-08T01:26:10.079Z,15.63
2023-02-08T01:28:39.928Z,17.13
2023-02-08T01:31:09.015Z,19.30
2023-02-08T01:33:37.636Z,16.50
2023-02-08T01:36:07.198Z,17.67
2023-02-08T01:38:37.774Z,16.93
2023-02-08T01:41:07.694Z,19.87
2023-02-08T01:43:56.579Z,15.37
2023-02-08T01:46:25.985Z,17.83
2023-02-08T01:48:55.415Z,18.27
2023-02-08T01:51:26.915Z,19.33
2023-02-08T01:53:57.188Z,17.37
2023-02-08T01:56:33.274Z,17.63
2023-02-08T01:59:04.727Z,16.40
2023-02-08T02:01:35.006Z,18.37
2023-02-08T02:04:04.543Z,19.13
2023-02-08T02:06:36.343Z,16.80
2023-02-08T02:09:11.453Z,15.63
2023-02-08T02:14:48.549Z,17.90
2023-02-08T02:17:21.535Z,15.67
2023-02-08T02:19:57.425Z,16.73
2023-02-08T02:22:46.706Z,16.87
2023-02-08T02:25:38.404Z,17.53
2023-02-08T02:28:53.917Z,18.43
2023-02-08T02:32:00.690Z,14.73
2023-02-08T02:34:38.727Z,15.63
2023-02-08T02:37:17.003Z,13.77
2023-02-08T02:39:58.391Z,13.57
2023-02-08T02:42:53.638Z,16.90
2023-02-08T02:45:32.367Z,19.53
2023-02-08T02:48:07.630Z,16.33
2023-02-08T02:50:42.599Z,20.23
2023-02-08T02:53:19.635Z,15.77
2023-02-08T02:55:52.400Z,16.17
2023-02-08T02:58:24.926Z,15.67
2023-02-08T03:00:54.140Z,17.93
2023-02-08T03:03:26.164Z,19.03
2023-02-08T03:06:00.942Z,17.63
2023-02-08T03:08:50.052Z,12.90
2023-02-08T03:11:22.893Z,14.67
2023-02-08T03:14:20.603Z,14.57
2023-02-08T03:17:07.745Z,15.87
2023-02-08T03:19:44.855Z,15.83
2023-02-08T03:22:18.827Z,19.23
2023-02-08T03:24:56.359Z,22.03
2023-02-08T03:27:34.257Z,15.07
2023-02-08T03:30:07.694Z,15.27
2023-02-08T03:32:42.999Z,13.93
2023-02-08T03:35:17.949Z,14.63
2023-02-08T03:37:51.363Z,22.67
2023-02-08T03:40:24.004Z,14.23
2023-02-08T03:42:55.376Z,15.53
2023-02-08T03:45:26.384Z,16.20
2023-02-08T03:47:59.633Z,14.87
2023-02-08T03:50:32.556Z,17.70
2023-02-08T03:53:01.550Z,17.57
2023-02-08T03:55:33.839Z,17.07
2023-02-08T03:58:10.341Z,14.33
2023-02-08T04:00:43.898Z,16.80
2023-02-08T04:03:17.018Z,18.30
2023-02-08T04:05:47.664Z,16.67
2023-02-08T04:08:16.014Z,18.57
2023-02-08T04:10:43.895Z,18.03
2023-02-08T04:13:12.803Z,15.30
2023-02-08T04:15:44.789Z,18.10
2023-02-08T04:18:12.760Z,16.80
2023-02-08T04:20:41.056Z,15.37
2023-02-08T04:23:11.648Z,15.37
2023-02-08T04:25:40.081Z,16.90
2023-02-08T04:28:07.880Z,15.67
2023-02-08T04:30:36.294Z,18.17
2023-02-08T04:33:04.886Z,18.10
2023-02-08T04:35:32.810Z,14.57
2023-02-08T04:38:01.924Z,22.20
2023-02-08T04:40:31.917Z,19.40
2023-02-08T04:43:02.425Z,18.20
2023-02-08T04:45:32.169Z,18.07
2023-02-08T04:48:01.549Z,18.40
2023-02-08T04:50:30.622Z,21.73
2023-02-08T04:52:59.568Z,20.13
2023-02-08T04:55:28.431Z,17.43
2023-02-08T04:57:57.827Z,22.90
2023-02-08T05:00:25.696Z,17.53
2023-02-08T05:02:54.464Z,22.17
2023-02-08T05:05:23.444Z,18.83
2023-02-08T05:07:51.737Z,16.17
2023-02-08T05:10:19.919Z,22.07
2023-02-08T05:12:47.715Z,16.40
2023-02-08T05:15:18.765Z,16.40
2023-02-08T05:17:46.774Z,19.43
2023-02-08T05:20:15.668Z,28.73
2023-02-08T05:22:43.959Z,20.20
2023-02-08T05:25:12.125Z,19.83
2023-02-08T05:27:40.200Z,17.57
2023-02-08T05:30:08.991Z,21.67
2023-02-08T05:32:39.734Z,21.97
2023-02-08T05:35:10.025Z,20.93
2023-02-08T05:37:38.642Z,20.67
2023-02-08T05:40:09.080Z,22.77
2023-02-08T05:42:37.644Z,16.67
2023-02-08T05:45:07.320Z,21.77
2023-02-08T05:47:35.839Z,18.27
2023-02-08T05:50:05.797Z,19.23
2023-02-08T05:52:33.683Z,21.10
2023-02-08T05:55:01.592Z,20.17
2023-02-08T05:57:31.384Z,25.80
2023-02-08T05:59:59.790Z,15.63
2023-02-08T06:02:27.719Z,17.97
2023-02-08T06:04:56.576Z,18.77
2023-02-08T06:07:26.433Z,21.77
2023-02-08T06:09:54.268Z,17.03
2023-02-08T06:12:22.080Z,18.00
2023-02-08T06:14:49.958Z,19.93
2023-02-08T06:17:18.087Z,21.80
2023-02-08T06:19:47.015Z,23.77
2023-02-08T06:22:16.593Z,19.77
2023-02-08T06:24:45.785Z,23.20
2023-02-08T06:27:14.477Z,22.33
2023-02-08T06:29:42.316Z,23.10
2023-02-08T06:32:11.333Z,21.20
2023-02-08T06:34:40.117Z,26.43
2023-02-08T06:37:10.400Z,25.53
2023-02-08T06:39:39.166Z,26.60
2023-02-08T06:42:08.995Z,25.60
2023-02-08T06:44:40.462Z,23.47
2023-02-08T06:47:12.419Z,26.53
2023-02-08T06:49:41.677Z,33.47
2023-02-08T06:52:10.756Z,24.70
2023-02-08T06:54:39.700Z,27.37
2023-02-08T06:57:09.094Z,33.73
2023-02-08T06:59:37.259Z,31.70
2023-02-08T07:02:05.292Z,26.27
2023-02-08T07:04:33.944Z,27.67
2023-02-08T07:07:03.021Z,28.70
2023-02-08T07:09:31.826Z,31.73
2023-02-08T07:11:59.917Z,23.53
2023-02-08T07:14:29.159Z,20.87
2023-02-08T07:16:58.036Z,25.27
2023-02-08T07:19:27.437Z,20.37
2023-02-08T07:21:58.023Z,31.73
2023-02-08T07:24:25.856Z,20.97
2023-02-08T07:26:54.138Z,22.73
2023-02-08T07:29:22.611Z,24.07
2023-02-08T07:31:52.785Z,22.33
2023-02-08T07:34:21.940Z,24.10
2023-02-08T07:36:49.853Z,19.47
2023-02-08T07:39:17.749Z,19.40
2023-02-08T07:41:47.117Z,24.23
2023-02-08T07:44:15.261Z,19.90
2023-02-08T07:46:43.383Z,25.43
2023-02-08T07:49:12.946Z,23.47
2023-02-08T07:51:41.776Z,21.33
2023-02-08T07:54:09.636Z,23.77
2023-02-08T07:56:37.521Z,23.77
2023-02-08T07:59:05.397Z,20.37
2023-02-08T08:01:33.723Z,19.70
2023-02-08T08:04:02.603Z,20.53
2023-02-08T08:06:31.900Z,18.57
2023-02-08T08:08:59.808Z,20.43
2023-02-08T08:11:27.741Z,21.40
2023-02-08T08:13:55.936Z,21.70
2023-02-08T08:16:25.287Z,22.37
2023-02-08T08:18:53.193Z,18.87
2023-02-08T08:21:21.148Z,17.87
2023-02-08T08:23:52.035Z,17.03
2023-02-08T08:26:22.572Z,17.57
2023-02-08T08:28:52.723Z,17.20
2023-02-08T08:31:22.883Z,17.77
2023-02-08T08:33:51.712Z,16.53
2023-02-08T08:36:20.296Z,15.87
2023-02-08T08:38:50.404Z,16.20
2023-02-08T08:41:18.994Z,16.20
2023-02-08T08:43:47.359Z,17.73
2023-02-08T08:46:16.632Z,20.97
2023-02-08T08:48:45.073Z,24.37
2023-02-08T08:51:14.155Z,20.63
2023-02-08T08:53:42.612Z,15.33
2023-02-08T08:56:12.116Z,16.83
2023-02-08T08:58:39.979Z,15.60
2023-02-08T09:01:07.835Z,18.77
2023-02-08T09:03:36.111Z,20.87
2023-02-08T09:06:04.082Z,17.40
2023-02-08T09:08:33.410Z,20.53
2023-02-08T09:11:06.205Z,19.60
2023-02-08T09:13:36.965Z,14.80
2023-02-08T09:16:09.715Z,17.07
2023-02-08T09:18:38.048Z,16.13
2023-02-08T09:21:11.110Z,14.83
2023-02-08T09:23:39.745Z,15.40
2023-02-08T09:26:10.929Z,18.73
2023-02-08T09:28:40.721Z,17.03
2023-02-08T09:31:09.230Z,15.53
2023-02-08T09:33:37.142Z,20.40
2023-02-08T09:36:05.348Z,12.10
2023-02-08T09:38:34.918Z,16.80
2023-02-08T09:41:20.496Z,15.80
2023-02-08T09:44:02.135Z,17.30
2023-02-08T09:46:35.908Z,17.73
2023-02-08T09:49:08.449Z,13.30
2023-02-08T09:51:41.032Z,17.37
2023-02-08T09:54:16.453Z,15.87
2023-02-08T09:56:46.160Z,13.93
2023-02-08T09:59:21.452Z,16.20
2023-02-08T10:01:52.582Z,21.07
2023-02-08T10:04:29.662Z,17.30
2023-02-08T10:06:58.328Z,16.67
2023-02-08T10:09:27.982Z,20.27
2023-02-08T10:12:08.083Z,17.17
2023-02-08T10:14:57.043Z,19.90
2023-02-08T10:17:43.538Z,14.27
2023-02-08T10:20:25.194Z,17.73
2023-02-08T10:23:04.062Z,15.63
2023-02-08T10:25:45.345Z,22.87
2023-02-08T10:28:31.421Z,13.80
2023-02-08T10:31:09.891Z,17.93
2023-02-08T10:33:47.900Z,22.77
2023-02-08T10:36:21.975Z,16.53
2023-02-08T10:38:54.512Z,14.53
2023-02-08T10:41:27.120Z,18.13
2023-02-08T10:44:06.011Z,13.77
2023-02-08T10:46:41.956Z,17.37
2023-02-08T10:49:17.911Z,14.33
2023-02-08T10:51:47.241Z,17.97
2023-02-08T10:54:17.762Z,15.40
2023-02-08T10:56:49.200Z,13.40
2023-02-08T10:59:21.117Z,25.63
2023-02-08T11:01:51.914Z,17.80
2023-02-08T11:04:20.688Z,21.43
2023-02-08T11:06:51.771Z,19.10
2023-02-08T11:09:26.578Z,15.37
2023-02-08T11:11:55.586Z,17.43
2023-02-08T11:14:40.999Z,20.27
2023-02-08T11:17:26.958Z,25.53
2023-02-08T11:19:55.175Z,11.53
2023-02-08T11:22:25.632Z,14.37
2023-02-08T11:25:00.125Z,15.00
2023-02-08T11:27:35.479Z,15.40
2023-02-08T11:30:23.308Z,16.00
2023-02-08T11:33:22.778Z,14.90
2023-02-08T11:36:01.809Z,15.23
2023-02-08T11:38:32.664Z,14.73
2023-02-08T11:41:05.548Z,17.63
2023-02-08T11:43:36.570Z,14.47
2023-02-08T11:46:08.011Z,19.63
2023-02-08T11:48:43.526Z,18.57
2023-02-08T11:51:15.597Z,13.73
2023-02-08T11:53:49.152Z,14.50
2023-02-08T11:56:20.890Z,16.60
2023-02-08T11:59:03.102Z,16.10
2023-02-08T12:01:34.552Z,10.67
2023-02-08T12:04:06.559Z,13.57
2023-02-08T12:07:03.266Z,11.43
2023-02-08T12:09:49.652Z,17.33
2023-02-08T12:12:29.100Z,10.40
2023-02-08T12:15:07.157Z,13.37
2023-02-08T12:17:56.173Z,9.67
2023-02-08T12:20:42.513Z,9.90
2023-02-08T12:23:45.744Z,10.43
2023-02-08T12:26:21.094Z,9.20
2023-02-08T12:29:10.974Z,10.13
2023-02-08T12:31:58.402Z,8.53
2023-02-08T12:34:40.702Z,8.00
2023-02-08T12:37:42.510Z,8.93
2023-02-08T12:40:41.813Z,8.90
2023-02-08T12:43:21.521Z,9.30
2023-02-08T12:46:09.339Z,8.10
2023-02-08T12:49:06.539Z,7.87
2023-02-08T12:51:44.162Z,8.13
2023-02-08T12:54:17.396Z,8.57
2023-02-08T12:57:01.581Z,7.63
2023-02-08T12:59:35.117Z,8.03
2023-02-08T13:02:16.963Z,6.53
2023-02-08T13:04:48.688Z,7.00
2023-02-08T13:07:22.137Z,9.17
2023-02-08T13:10:02.546Z,8.23
2023-02-08T13:12:33.724Z,9.37
2023-02-08T13:15:11.864Z,10.67
2023-02-08T13:17:49.430Z,10.50
2023-02-08T13:20:31.010Z,9.97
2023-02-08T13:23:03.621Z,10.90
2023-02-08T13:25:37.154Z,9.90
2023-02-08T13:28:09.100Z,9.50
2023-02-08T13:30:40.283Z,9.33
2023-02-08T13:33:18.106Z,10.70
2023-02-08T13:35:51.484Z,11.63
2023-02-08T13:38:28.387Z,10.70
2023-02-08T13:41:07.174Z,14.87
2023-02-08T13:43:42.091Z,9.87
2023-02-08T13:46:12.069Z,14.30
2023-02-08T13:48:48.023Z,10.73
2023-02-08T13:52:02.303Z,11.50
2023-02-08T13:54:30.322Z,10.83
2023-02-08T13:57:01.327Z,13.80
2023-02-08T13:59:35.622Z,10.67
2023-02-08T14:02:22.798Z,13.73
2023-02-08T14:04:53.997Z,11.30
2023-02-08T14:07:41.669Z,13.13
2023-02-08T14:10:23.984Z,13.70
2023-02-08T14:12:59.956Z,13.60
2023-02-08T14:15:33.820Z,13.27
2023-02-08T14:18:02.936Z,11.93
2023-02-08T14:20:39.325Z,14.73
2023-02-08T14:23:21.412Z,14.50
2023-02-08T14:25:51.874Z,13.47
2023-02-08T14:28:31.983Z,15.40
2023-02-08T14:31:02.435Z,15.17
2023-02-08T14:33:35.101Z,12.17
2023-02-08T14:36:06.239Z,13.63
2023-02-08T14:39:08.590Z,15.70
2023-02-08T14:41:51.582Z,13.07
2023-02-08T14:44:55.969Z,13.30
2023-02-08T14:47:54.920Z,13.57
2023-02-08T14:50:30.176Z,16.17
2023-02-08T14:53:04.213Z,15.13
2023-02-08T14:55:38.466Z,14.27
2023-02-08T14:58:08.557Z,19.00
2023-02-08T15:00:38.983Z,14.10
2023-02-08T15:03:15.963Z,16.60
2023-02-08T15:05:57.859Z,21.83
2023-02-08T15:08:26.074Z,16.10
2023-02-08T15:10:53.957Z,19.77
2023-02-08T15:13:24.827Z,15.13
2023-02-08T15:15:55.958Z,14.57
2023-02-08T15:18:29.436Z,14.30
2023-02-08T15:21:04.768Z,21.33
2023-02-08T15:23:32.893Z,15.77
2023-02-08T15:26:05.228Z,15.43
2023-02-08T15:28:37.791Z,17.63
2023-02-08T15:31:09.315Z,19.63
2023-02-08T15:33:42.530Z,19.60
2023-02-08T15:36:23.335Z,18.37
2023-02-08T15:38:51.261Z,17.27
2023-02-08T15:41:26.231Z,17.83
2023-02-08T15:44:02.209Z,18.77
2023-02-08T15:46:31.788Z,17.97
2023-02-08T15:49:01.301Z,19.03
2023-02-08T15:51:30.579Z,19.70
2023-02-08T15:53:58.651Z,18.10
2023-02-08T15:56:37.545Z,17.33
2023-02-08T15:59:07.943Z,16.53
2023-02-08T16:01:37.012Z,19.20
2023-02-08T16:04:08.412Z,24.00
2023-02-08T16:06:40.114Z,21.13
2023-02-08T16:09:08.310Z,17.90
2023-02-08T16:11:37.748Z,21.70
2023-02-08T16:14:07.819Z,19.60
2023-02-08T16:16:42.646Z,19.77
2023-02-08T16:19:24.190Z,18.57
2023-02-08T16:21:53.394Z,20.73
2023-02-08T16:24:25.115Z,19.27
2023-02-08T16:26:58.313Z,24.70
2023-02-08T16:29:30.338Z,18.80
2023-02-08T16:32:07.913Z,19.20
2023-02-08T16:34:39.793Z,20.03
2023-02-08T16:37:19.690Z,19.67
2023-02-08T16:39:56.052Z,23.13
2023-02-08T16:42:29.924Z,20.40
2023-02-08T16:45:13.923Z,19.50
2023-02-08T16:47:43.177Z,20.30
2023-02-08T16:50:16.109Z,28.07
2023-02-08T16:52:44.187Z,22.00
2023-02-08T16:55:23.192Z,19.33
2023-02-08T16:57:53.085Z,28.03
2023-02-08T17:00:25.189Z,23.10
2023-02-08T17:02:53.499Z,22.70
2023-02-08T17:05:25.039Z,28.63
2023-02-08T17:07:52.948Z,24.90
2023-02-08T17:10:26.482Z,22.17
2023-02-08T17:13:07.036Z,23.90
2023-02-08T17:15:44.575Z,25.07
2023-02-08T17:18:14.931Z,23.50
2023-02-08T17:20:44.979Z,25.47
2023-02-08T17:23:15.686Z,25.83
2023-02-08T17:25:44.470Z,27.93
2023-02-08T17:28:17.484Z,31.60
2023-02-08T17:30:48.657Z,24.20
2023-02-08T17:33:18.909Z,33.97
2023-02-08T17:35:50.592Z,22.73
2023-02-08T17:38:19.446Z,27.40
2023-02-08T17:40:48.304Z,26.53
2023-02-08T17:43:18.068Z,36.83
2023-02-08T17:45:46.687Z,34.03
2023-02-08T17:48:15.020Z,32.53
2023-02-08T17:50:47.795Z,35.90
2023-02-08T17:53:17.700Z,32.23
2023-02-08T17:55:47.780Z,30.47
2023-02-08T17:58:15.675Z,32.53
2023-02-08T18:00:43.500Z,32.33
2023-02-08T18:03:12.070Z,32.10
2023-02-08T18:05:40.042Z,34.10
2023-02-08T18:08:07.897Z,43.80
2023-02-08T18:10:37.097Z,32.10
2023-02-08T18:13:05.129Z,28.13
2023-02-08T18:15:34.932Z,26.73
2023-02-08T18:18:03.273Z,26.30
2023-02-08T18:20:31.830Z,28.00
2023-02-08T18:22:59.708Z,34.23
2023-02-08T18:25:27.703Z,28.07
2023-02-08T18:27:57.140Z,31.53
2023-02-08T18:30:26.182Z,28.67
2023-02-08T18:32:54.015Z,28.13
2023-02-08T18:35:22.466Z,32.30
2023-02-08T18:37:50.409Z,32.67
2023-02-08T18:40:19.232Z,32.00
2023-02-08T18:42:47.097Z,29.83
2023-02-08T18:45:16.394Z,28.67
2023-02-08T18:47:44.334Z,28.03
2023-02-08T18:50:12.435Z,30.73
2023-02-08T18:52:40.255Z,29.43
2023-02-08T18:55:08.545Z,25.77
2023-02-08T18:57:38.903Z,31.00
2023-02-08T19:00:07.687Z,33.17
2023-02-08T19:02:39.352Z,24.17
2023-02-08T19:05:07.943Z,26.60
2023-02-08T19:07:36.331Z,28.43
2023-02-08T19:10:04.811Z,31.67
2023-02-08T19:12:32.616Z,28.70
2023-02-08T19:15:00.476Z,29.60
2023-02-08T19:17:28.489Z,25.97
2023-02-08T19:19:59.576Z,31.00
2023-02-08T19:22:27.422Z,32.80
2023-02-08T19:24:55.870Z,32.83
2023-02-08T19:27:24.948Z,31.27
2023-02-08T19:29:56.249Z,31.37
2023-02-08T19:32:24.990Z,31.37
2023-02-08T19:34:52.859Z,28.47
2023-02-08T19:37:22.090Z,31.00
2023-02-08T19:39:51.273Z,35.77
2023-02-08T19:42:19.701Z,32.33
2023-02-08T19:44:48.225Z,30.40
2023-02-08T19:47:16.872Z,33.90
2023-02-08T19:49:44.893Z,32.03
2023-02-08T19:52:16.949Z,28.50
2023-02-08T19:54:47.048Z,28.27
2023-02-08T19:57:16.092Z,29.40
2023-02-08T19:59:44.631Z,28.80
2023-02-08T20:02:13.576Z,31.60
2023-02-08T20:04:42.291Z,34.33
2023-02-08T20:07:10.346Z,34.43
2023-02-08T20:09:38.545Z,31.57
2023-02-08T20:12:09.228Z,33.73
2023-02-08T20:14:38.118Z,29.67
2023-02-08T20:17:05.912Z,27.60
2023-02-08T20:19:37.020Z,30.10
2023-02-08T20:22:06.085Z,31.63
2023-02-08T20:24:34.623Z,33.93
2023-02-08T20:27:02.487Z,36.47
2023-02-08T20:29:31.723Z,29.87
2023-02-08T20:31:59.621Z,28.50
2023-02-08T20:34:27.725Z,29.87
2023-02-08T20:37:11.887Z,30.60
2023-02-08T20:39:41.545Z,30.70
2023-02-08T20:42:10.716Z,33.73
2023-02-08T20:44:41.337Z,32.63
2023-02-08T20:47:10.731Z,31.57
2023-02-08T20:49:40.212Z,37.60
2023-02-08T20:52:08.733Z,31.93
2023-02-08T20:54:37.069Z,32.57
2023-02-08T20:57:05.450Z,32.03
2023-02-08T20:59:33.795Z,36.20
2023-02-08T21:02:04.935Z,30.43
2023-02-08T21:04:32.882Z,33.40
2023-02-08T21:07:00.797Z,37.20
2023-02-08T21:09:29.036Z,32.07
2023-02-08T21:11:56.849Z,32.37
2023-02-08T21:14:25.355Z,34.60
2023-02-08T21:16:58.901Z,34.50
2023-02-08T21:19:31.146Z,32.00
2023-02-08T21:22:02.022Z,33.30
2023-02-08T21:24:30.907Z,31.07
2023-02-08T21:26:58.959Z,33.87
2023-02-08T21:29:29.341Z,35.70
2023-02-08T21:31:57.817Z,32.57
2023-02-08T21:34:26.729Z,39.33
2023-02-08T21:36:58.612Z,38.83
2023-02-08T21:39:28.415Z,39.60
2023-02-08T21:41:56.368Z,38.83
2023-02-08T21:44:24.284Z,47.00
2023-02-08T21:46:52.946Z,38.97
2023-02-08T21:49:39.414Z,31.93
2023-02-08T21:52:26.127Z,32.87
2023-02-08T21:54:54.064Z,32.40
2023-02-08T21:57:25.020Z,28.87
2023-02-08T21:59:55.769Z,31.23
2023-02-08T22:02:25.892Z,31.40
2023-02-08T22:04:55.142Z,34.43
2023-02-08T22:07:24.509Z,31.80
2023-02-08T22:09:54.998Z,30.93
2023-02-08T22:12:24.631Z,33.07
2023-02-08T22:14:52.517Z,29.43
2023-02-08T22:17:21.033Z,41.23
2023-02-08T22:19:48.865Z,34.93
2023-02-08T22:22:18.348Z,34.90
2023-02-08T22:24:50.120Z,34.43
2023-02-08T22:27:18.062Z,37.00
2023-02-08T22:29:46.692Z,35.87
2023-02-08T22:32:17.033Z,39.47
2023-02-08T22:34:46.440Z,34.00
2023-02-08T22:37:16.690Z,35.03
2023-02-08T22:39:46.229Z,42.70
2023-02-08T22:42:16.649Z,42.53
2023-02-08T22:44:46.726Z,35.57
2023-02-08T22:47:14.972Z,37.53
2023-02-08T22:49:44.368Z,34.50
2023-02-08T22:52:12.375Z,43.60
2023-02-08T22:54:41.452Z,41.87
2023-02-08T22:57:11.266Z,40.90
2023-02-08T22:59:41.200Z,37.90
2023-02-08T23:02:09.460Z,35.53
2023-02-08T23:04:38.194Z,36.97
2023-02-08T23:07:06.229Z,39.50
2023-02-08T23:09:34.167Z,41.53
2023-02-08T23:12:02.033Z,39.30
2023-02-08T23:14:29.917Z,46.67
2023-02-08T23:16:59.185Z,36.67
2023-02-08T23:19:27.167Z,35.80
2023-02-08T23:21:55.104Z,42.23
2023-02-08T23:24:22.976Z,36.13
2023-02-08T23:26:51.277Z,38.53
2023-02-08T23:29:19.146Z,39.07
2023-02-08T23:31:47.095Z,34.07
2023-02-08T23:34:16.486Z,44.93
2023-02-08T23:36:44.457Z,37.90
2023-02-08T23:39:12.294Z,35.50
2023-02-08T23:41:40.184Z,32.97
2023-02-08T23:44:08.170Z,35.93
2023-02-08T23:46:36.072Z,38.40
2023-02-08T23:49:04.135Z,37.03
2023-02-08T23:51:33.363Z,34.13
2023-02-08T23:54:01.246Z,40.23
2023-02-08T23:56:31.922Z,35.77
2023-02-08T23:59:00.624Z,38.20
